MATER UKLL (LWO)

Остані дані METAR із Аеропорта UKLL (LWO)

L'Viv, Ukraine (UKLL) 49-49N 023-57E 323M
Mar 12, 2022 - 02:00 PM EST / 2022.03.12 1900 UTC
Wind: from the NW (320 degrees) at 4 MPH (4 KT):0
Visibility: greater than 7 mile(s):0
Temperature: 33 F (1 C)
Dew Point: 12 F (-11 C)
Relative Humidity: 40%
Pressure (altimeter): 30.33 in. Hg (1027 hPa)
ob: UKLL 121900Z 32002MPS CAVOK 01/M11 Q1027 NOSIG
cycle: 19